sensor_id;sensor_type;location;lat;lon;timestamp;P1;durP1;ratioP1;P2;durP2;ratioP2
15271;SDS011;7737;51.578;7.268;2022-11-30T00:01:07;99.90;;;36.42;;
15271;SDS011;7737;51.578;7.268;2022-11-30T00:03:34;102.85;;;37.15;;
15271;SDS011;7737;51.578;7.268;2022-11-30T00:06:02;118.95;;;39.08;;
15271;SDS011;7737;51.578;7.268;2022-11-30T00:08:30;135.82;;;39.35;;
15271;SDS011;7737;51.578;7.268;2022-11-30T00:10:57;116.07;;;38.30;;
15271;SDS011;7737;51.578;7.268;2022-11-30T00:13:23;139.23;;;40.80;;
15271;SDS011;7737;51.578;7.268;2022-11-30T00:15:50;114.75;;;38.47;;
15271;SDS011;7737;51.578;7.268;2022-11-30T00:18:16;118.47;;;38.13;;
15271;SDS011;7737;51.578;7.268;2022-11-30T00:20:43;112.53;;;37.78;;
15271;SDS011;7737;51.578;7.268;2022-11-30T00:23:09;124.28;;;38.05;;
15271;SDS011;7737;51.578;7.268;2022-11-30T00:25:37;111.85;;;39.03;;
15271;SDS011;7737;51.578;7.268;2022-11-30T00:28:04;149.88;;;42.15;;
15271;SDS011;7737;51.578;7.268;2022-11-30T00:30:30;117.18;;;38.65;;
15271;SDS011;7737;51.578;7.268;2022-11-30T00:32:57;96.60;;;36.58;;
15271;SDS011;7737;51.578;7.268;2022-11-30T00:35:23;95.32;;;35.92;;
15271;SDS011;7737;51.578;7.268;2022-11-30T00:37:50;110.87;;;37.47;;
15271;SDS011;7737;51.578;7.268;2022-11-30T00:40:16;98.68;;;35.10;;
15271;SDS011;7737;51.578;7.268;2022-11-30T00:42:44;109.20;;;36.45;;
15271;SDS011;7737;51.578;7.268;2022-11-30T00:45:11;105.28;;;35.40;;
15271;SDS011;7737;51.578;7.268;2022-11-30T00:47:37;120.40;;;36.35;;
15271;SDS011;7737;51.578;7.268;2022-11-30T00:50:04;90.57;;;35.00;;
15271;SDS011;7737;51.578;7.268;2022-11-30T00:52:31;116.30;;;35.92;;
15271;SDS011;7737;51.578;7.268;2022-11-30T00:54:58;100.15;;;35.05;;
15271;SDS011;7737;51.578;7.268;2022-11-30T00:57:24;93.80;;;33.85;;
15271;SDS011;7737;51.578;7.268;2022-11-30T00:59:52;101.68;;;34.92;;
15271;SDS011;7737;51.578;7.268;2022-11-30T01:02:19;101.07;;;36.00;;
15271;SDS011;7737;51.578;7.268;2022-11-30T01:04:45;91.50;;;33.38;;
15271;SDS011;7737;51.578;7.268;2022-11-30T01:07:12;85.22;;;32.65;;
15271;SDS011;7737;51.578;7.268;2022-11-30T01:09:38;108.47;;;35.05;;
15271;SDS011;7737;51.578;7.268;2022-11-30T01:12:05;71.45;;;30.80;;
15271;SDS011;7737;51.578;7.268;2022-11-30T01:14:31;82.18;;;31.88;;
15271;SDS011;7737;51.578;7.268;2022-11-30T01:16:59;95.07;;;31.08;;
15271;SDS011;7737;51.578;7.268;2022-11-30T01:19:26;63.10;;;29.03;;
15271;SDS011;7737;51.578;7.268;2022-11-30T01:21:52;58.60;;;27.87;;
15271;SDS011;7737;51.578;7.268;2022-11-30T01:24:19;45.42;;;24.83;;
15271;SDS011;7737;51.578;7.268;2022-11-30T01:26:45;49.95;;;24.98;;
15271;SDS011;7737;51.578;7.268;2022-11-30T01:29:12;45.65;;;25.20;;
15271;SDS011;7737;51.578;7.268;2022-11-30T01:31:38;46.22;;;24.20;;
15271;SDS011;7737;51.578;7.268;2022-11-30T01:34:06;53.63;;;25.08;;
15271;SDS011;7737;51.578;7.268;2022-11-30T01:36:33;45.58;;;24.17;;
15271;SDS011;7737;51.578;7.268;2022-11-30T01:39:00;52.97;;;26.10;;
15271;SDS011;7737;51.578;7.268;2022-11-30T01:41:28;51.08;;;25.15;;
15271;SDS011;7737;51.578;7.268;2022-11-30T01:43:56;48.63;;;24.23;;
15271;SDS011;7737;51.578;7.268;2022-11-30T01:46:39;52.55;;;25.23;;
15271;SDS011;7737;51.578;7.268;2022-11-30T01:49:13;56.17;;;25.70;;
15271;SDS011;7737;51.578;7.268;2022-11-30T01:51:43;51.13;;;25.08;;
15271;SDS011;7737;51.578;7.268;2022-11-30T01:54:15;53.55;;;24.92;;
15271;SDS011;7737;51.578;7.268;2022-11-30T01:56:45;55.58;;;26.65;;
15271;SDS011;7737;51.578;7.268;2022-11-30T01:59:15;52.53;;;26.87;;
15271;SDS011;7737;51.578;7.268;2022-11-30T02:01:43;65.43;;;29.57;;
15271;SDS011;7737;51.578;7.268;2022-11-30T02:04:10;68.13;;;31.07;;
15271;SDS011;7737;51.578;7.268;2022-11-30T02:06:43;74.83;;;32.33;;
15271;SDS011;7737;51.578;7.268;2022-11-30T02:09:10;80.80;;;32.33;;
15271;SDS011;7737;51.578;7.268;2022-11-30T02:11:38;81.10;;;34.90;;
15271;SDS011;7737;51.578;7.268;2022-11-30T02:14:10;90.27;;;34.53;;
15271;SDS011;7737;51.578;7.268;2022-11-30T02:16:47;89.87;;;34.43;;
15271;SDS011;7737;51.578;7.268;2022-11-30T02:19:34;77.23;;;33.67;;
15271;SDS011;7737;51.578;7.268;2022-11-30T02:22:23;85.20;;;34.07;;
15271;SDS011;7737;51.578;7.268;2022-11-30T02:25:03;78.47;;;33.17;;
15271;SDS011;7737;51.578;7.268;2022-11-30T02:27:40;80.87;;;33.10;;
15271;SDS011;7737;51.578;7.268;2022-11-30T02:30:20;70.50;;;31.17;;
15271;SDS011;7737;51.578;7.268;2022-11-30T02:32:49;64.07;;;31.67;;
15271;SDS011;7737;51.578;7.268;2022-11-30T02:35:22;65.90;;;31.73;;
15271;SDS011;7737;51.578;7.268;2022-11-30T02:37:52;65.95;;;32.20;;
15271;SDS011;7737;51.578;7.268;2022-11-30T02:40:20;65.63;;;30.97;;
15271;SDS011;7737;51.578;7.268;2022-11-30T02:42:47;65.45;;;30.38;;
15271;SDS011;7737;51.578;7.268;2022-11-30T02:45:15;63.58;;;31.05;;
15271;SDS011;7737;51.578;7.268;2022-11-30T02:47:47;60.10;;;30.77;;
15271;SDS011;7737;51.578;7.268;2022-11-30T02:50:21;60.92;;;30.50;;
15271;SDS011;7737;51.578;7.268;2022-11-30T02:52:53;58.00;;;30.07;;
15271;SDS011;7737;51.578;7.268;2022-11-30T02:55:20;66.40;;;31.40;;
15271;SDS011;7737;51.578;7.268;2022-11-30T02:57:47;65.43;;;30.77;;
15271;SDS011;7737;51.578;7.268;2022-11-30T03:00:15;54.60;;;28.75;;
15271;SDS011;7737;51.578;7.268;2022-11-30T03:02:42;58.30;;;30.87;;
15271;SDS011;7737;51.578;7.268;2022-11-30T03:05:10;62.23;;;30.60;;
15271;SDS011;7737;51.578;7.268;2022-11-30T03:07:36;61.20;;;30.67;;
15271;SDS011;7737;51.578;7.268;2022-11-30T03:10:03;59.17;;;30.77;;
15271;SDS011;7737;51.578;7.268;2022-11-30T03:12:30;58.53;;;31.48;;
15271;SDS011;7737;51.578;7.268;2022-11-30T03:14:57;57.58;;;31.42;;
15271;SDS011;7737;51.578;7.268;2022-11-30T03:17:23;56.38;;;31.00;;
15271;SDS011;7737;51.578;7.268;2022-11-30T03:19:50;53.53;;;30.63;;
15271;SDS011;7737;51.578;7.268;2022-11-30T03:22:18;54.67;;;30.85;;
15271;SDS011;7737;51.578;7.268;2022-11-30T03:24:44;49.70;;;30.53;;
15271;SDS011;7737;51.578;7.268;2022-11-30T03:27:11;49.00;;;29.80;;
15271;SDS011;7737;51.578;7.268;2022-11-30T03:29:37;51.55;;;30.38;;
15271;SDS011;7737;51.578;7.268;2022-11-30T03:32:04;48.58;;;29.88;;
15271;SDS011;7737;51.578;7.268;2022-11-30T03:34:31;43.42;;;28.13;;
15271;SDS011;7737;51.578;7.268;2022-11-30T03:36:57;43.10;;;28.20;;
15271;SDS011;7737;51.578;7.268;2022-11-30T03:39:26;42.43;;;28.10;;
15271;SDS011;7737;51.578;7.268;2022-11-30T03:41:52;42.05;;;27.73;;
15271;SDS011;7737;51.578;7.268;2022-11-30T03:44:19;43.83;;;27.98;;
15271;SDS011;7737;51.578;7.268;2022-11-30T03:46:45;40.92;;;26.73;;
15271;SDS011;7737;51.578;7.268;2022-11-30T03:49:12;40.07;;;28.27;;
15271;SDS011;7737;51.578;7.268;2022-11-30T03:51:38;41.67;;;27.48;;
15271;SDS011;7737;51.578;7.268;2022-11-30T03:54:04;43.03;;;27.80;;
15271;SDS011;7737;51.578;7.268;2022-11-30T03:56:32;40.60;;;27.70;;
15271;SDS011;7737;51.578;7.268;2022-11-30T03:58:59;42.42;;;27.70;;
15271;SDS011;7737;51.578;7.268;2022-11-30T04:01:25;40.70;;;28.02;;
15271;SDS011;7737;51.578;7.268;2022-11-30T04:03:52;40.30;;;27.87;;
15271;SDS011;7737;51.578;7.268;2022-11-30T04:06:19;39.63;;;26.77;;
15271;SDS011;7737;51.578;7.268;2022-11-30T04:08:46;41.00;;;27.33;;
15271;SDS011;7737;51.578;7.268;2022-11-30T04:11:13;38.00;;;26.45;;
15271;SDS011;7737;51.578;7.268;2022-11-30T04:13:42;35.37;;;26.73;;
15271;SDS011;7737;51.578;7.268;2022-11-30T04:16:08;33.23;;;25.47;;
15271;SDS011;7737;51.578;7.268;2022-11-30T04:18:36;35.47;;;25.73;;
15271;SDS011;7737;51.578;7.268;2022-11-30T04:21:03;34.63;;;24.53;;
15271;SDS011;7737;51.578;7.268;2022-11-30T04:23:31;35.20;;;25.83;;
15271;SDS011;7737;51.578;7.268;2022-11-30T04:26:01;30.87;;;24.40;;
15271;SDS011;7737;51.578;7.268;2022-11-30T04:28:27;32.13;;;24.53;;
15271;SDS011;7737;51.578;7.268;2022-11-30T04:30:55;31.50;;;23.20;;
15271;SDS011;7737;51.578;7.268;2022-11-30T04:33:24;29.45;;;24.08;;
15271;SDS011;7737;51.578;7.268;2022-11-30T04:35:52;32.93;;;24.70;;
15271;SDS011;7737;51.578;7.268;2022-11-30T04:38:20;34.38;;;25.10;;
15271;SDS011;7737;51.578;7.268;2022-11-30T04:40:47;33.17;;;24.37;;
15271;SDS011;7737;51.578;7.268;2022-11-30T04:43:14;32.23;;;24.37;;
15271;SDS011;7737;51.578;7.268;2022-11-30T04:45:41;30.83;;;23.60;;
15271;SDS011;7737;51.578;7.268;2022-11-30T04:48:09;30.63;;;23.47;;
15271;SDS011;7737;51.578;7.268;2022-11-30T04:50:36;30.92;;;23.58;;
15271;SDS011;7737;51.578;7.268;2022-11-30T04:53:03;31.67;;;23.43;;
15271;SDS011;7737;51.578;7.268;2022-11-30T04:55:30;33.37;;;23.53;;
15271;SDS011;7737;51.578;7.268;2022-11-30T04:57:57;29.20;;;23.00;;
15271;SDS011;7737;51.578;7.268;2022-11-30T05:00:23;31.57;;;23.50;;
15271;SDS011;7737;51.578;7.268;2022-11-30T05:02:50;31.77;;;24.30;;
15271;SDS011;7737;51.578;7.268;2022-11-30T05:05:18;32.72;;;24.23;;
15271;SDS011;7737;51.578;7.268;2022-11-30T05:07:47;33.25;;;24.65;;
15271;SDS011;7737;51.578;7.268;2022-11-30T05:10:14;32.42;;;23.23;;
15271;SDS011;7737;51.578;7.268;2022-11-30T05:12:41;30.38;;;22.75;;
15271;SDS011;7737;51.578;7.268;2022-11-30T05:15:07;31.77;;;24.23;;
15271;SDS011;7737;51.578;7.268;2022-11-30T05:17:34;28.58;;;22.48;;
15271;SDS011;7737;51.578;7.268;2022-11-30T05:20:01;29.75;;;23.38;;
15271;SDS011;7737;51.578;7.268;2022-11-30T05:22:29;33.97;;;24.58;;
15271;SDS011;7737;51.578;7.268;2022-11-30T05:24:56;32.37;;;24.30;;
15271;SDS011;7737;51.578;7.268;2022-11-30T05:27:22;33.17;;;24.53;;
15271;SDS011;7737;51.578;7.268;2022-11-30T05:29:49;33.37;;;24.10;;
15271;SDS011;7737;51.578;7.268;2022-11-30T05:32:15;31.00;;;23.00;;
15271;SDS011;7737;51.578;7.268;2022-11-30T05:34:42;30.48;;;23.50;;
15271;SDS011;7737;51.578;7.268;2022-11-30T05:37:08;31.70;;;23.70;;
15271;SDS011;7737;51.578;7.268;2022-11-30T05:39:36;32.93;;;24.10;;
15271;SDS011;7737;51.578;7.268;2022-11-30T05:42:03;34.88;;;24.67;;
15271;SDS011;7737;51.578;7.268;2022-11-30T05:44:29;33.42;;;24.10;;
15271;SDS011;7737;51.578;7.268;2022-11-30T05:46:56;33.08;;;24.30;;
15271;SDS011;7737;51.578;7.268;2022-11-30T05:49:22;30.48;;;23.52;;
15271;SDS011;7737;51.578;7.268;2022-11-30T05:51:49;32.53;;;24.98;;
15271;SDS011;7737;51.578;7.268;2022-11-30T05:54:15;30.27;;;22.17;;
15271;SDS011;7737;51.578;7.268;2022-11-30T05:56:43;31.67;;;24.37;;
15271;SDS011;7737;51.578;7.268;2022-11-30T05:59:10;31.67;;;23.43;;
15271;SDS011;7737;51.578;7.268;2022-11-30T06:01:36;31.97;;;23.30;;
15271;SDS011;7737;51.578;7.268;2022-11-30T06:04:03;30.38;;;23.00;;
15271;SDS011;7737;51.578;7.268;2022-11-30T06:06:30;33.67;;;23.73;;
15271;SDS011;7737;51.578;7.268;2022-11-30T06:08:57;31.87;;;23.57;;
15271;SDS011;7737;51.578;7.268;2022-11-30T06:11:23;32.30;;;23.60;;
15271;SDS011;7737;51.578;7.268;2022-11-30T06:13:51;29.83;;;23.07;;
15271;SDS011;7737;51.578;7.268;2022-11-30T06:16:18;32.00;;;24.03;;
15271;SDS011;7737;51.578;7.268;2022-11-30T06:18:44;33.07;;;22.93;;
15271;SDS011;7737;51.578;7.268;2022-11-30T06:21:11;31.40;;;23.07;;
15271;SDS011;7737;51.578;7.268;2022-11-30T06:23:37;32.50;;;23.50;;
15271;SDS011;7737;51.578;7.268;2022-11-30T06:26:04;31.53;;;24.17;;
15271;SDS011;7737;51.578;7.268;2022-11-30T06:28:31;32.97;;;23.50;;
15271;SDS011;7737;51.578;7.268;2022-11-30T06:31:00;29.37;;;22.57;;
15271;SDS011;7737;51.578;7.268;2022-11-30T06:33:27;31.53;;;24.43;;
15271;SDS011;7737;51.578;7.268;2022-11-30T06:35:54;33.10;;;23.80;;
15271;SDS011;7737;51.578;7.268;2022-11-30T06:38:21;29.73;;;22.67;;
15271;SDS011;7737;51.578;7.268;2022-11-30T06:40:47;32.33;;;23.77;;
15271;SDS011;7737;51.578;7.268;2022-11-30T06:43:14;32.37;;;24.33;;
15271;SDS011;7737;51.578;7.268;2022-11-30T06:45:41;33.03;;;24.60;;
15271;SDS011;7737;51.578;7.268;2022-11-30T06:48:09;33.13;;;24.07;;
15271;SDS011;7737;51.578;7.268;2022-11-30T06:50:36;34.20;;;25.20;;
15271;SDS011;7737;51.578;7.268;2022-11-30T06:53:03;32.97;;;24.57;;
15271;SDS011;7737;51.578;7.268;2022-11-30T06:55:29;33.67;;;23.20;;
15271;SDS011;7737;51.578;7.268;2022-11-30T06:58:03;36.13;;;24.13;;
15271;SDS011;7737;51.578;7.268;2022-11-30T07:00:30;34.77;;;24.73;;
15271;SDS011;7737;51.578;7.268;2022-11-30T07:02:57;33.47;;;24.80;;
15271;SDS011;7737;51.578;7.268;2022-11-30T07:05:25;32.87;;;23.87;;
15271;SDS011;7737;51.578;7.268;2022-11-30T07:07:51;35.53;;;25.23;;
15271;SDS011;7737;51.578;7.268;2022-11-30T07:10:18;35.73;;;25.43;;
15271;SDS011;7737;51.578;7.268;2022-11-30T07:12:46;39.07;;;27.43;;
15271;SDS011;7737;51.578;7.268;2022-11-30T07:15:13;37.70;;;26.20;;
15271;SDS011;7737;51.578;7.268;2022-11-30T07:17:39;36.70;;;25.93;;
15271;SDS011;7737;51.578;7.268;2022-11-30T07:20:06;37.83;;;28.10;;
15271;SDS011;7737;51.578;7.268;2022-11-30T07:22:35;37.87;;;26.83;;
15271;SDS011;7737;51.578;7.268;2022-11-30T07:25:01;39.08;;;27.55;;
15271;SDS011;7737;51.578;7.268;2022-11-30T07:27:45;38.20;;;26.70;;
15271;SDS011;7737;51.578;7.268;2022-11-30T07:30:12;39.63;;;27.70;;
15271;SDS011;7737;51.578;7.268;2022-11-30T07:32:39;38.10;;;27.87;;
15271;SDS011;7737;51.578;7.268;2022-11-30T07:35:05;37.53;;;26.87;;
15271;SDS011;7737;51.578;7.268;2022-11-30T07:37:32;38.53;;;27.10;;
15271;SDS011;7737;51.578;7.268;2022-11-30T07:40:00;40.07;;;27.63;;
15271;SDS011;7737;51.578;7.268;2022-11-30T07:42:28;39.57;;;28.17;;
15271;SDS011;7737;51.578;7.268;2022-11-30T07:44:54;39.87;;;27.57;;
15271;SDS011;7737;51.578;7.268;2022-11-30T07:47:21;38.77;;;27.83;;
15271;SDS011;7737;51.578;7.268;2022-11-30T07:49:47;41.13;;;27.20;;
15271;SDS011;7737;51.578;7.268;2022-11-30T07:52:14;39.57;;;28.07;;
15271;SDS011;7737;51.578;7.268;2022-11-30T07:54:42;38.33;;;27.47;;
15271;SDS011;7737;51.578;7.268;2022-11-30T07:57:08;38.07;;;27.47;;
15271;SDS011;7737;51.578;7.268;2022-11-30T07:59:35;39.07;;;27.67;;
15271;SDS011;7737;51.578;7.268;2022-11-30T08:02:01;36.90;;;27.07;;
15271;SDS011;7737;51.578;7.268;2022-11-30T08:04:28;40.60;;;27.60;;
15271;SDS011;7737;51.578;7.268;2022-11-30T08:06:54;39.40;;;27.43;;
15271;SDS011;7737;51.578;7.268;2022-11-30T08:09:21;41.43;;;28.50;;
15271;SDS011;7737;51.578;7.268;2022-11-30T08:11:49;39.70;;;26.63;;
15271;SDS011;7737;51.578;7.268;2022-11-30T08:14:15;41.07;;;28.50;;
15271;SDS011;7737;51.578;7.268;2022-11-30T08:16:42;38.80;;;26.65;;
15271;SDS011;7737;51.578;7.268;2022-11-30T08:19:08;37.13;;;26.47;;
15271;SDS011;7737;51.578;7.268;2022-11-30T08:21:35;40.43;;;27.10;;
15271;SDS011;7737;51.578;7.268;2022-11-30T08:24:02;35.15;;;24.90;;
15271;SDS011;7737;51.578;7.268;2022-11-30T08:26:30;38.00;;;27.40;;
15271;SDS011;7737;51.578;7.268;2022-11-30T08:28:59;39.25;;;27.08;;
15271;SDS011;7737;51.578;7.268;2022-11-30T08:31:27;34.93;;;26.20;;
15271;SDS011;7737;51.578;7.268;2022-11-30T08:33:55;37.50;;;26.60;;
15271;SDS011;7737;51.578;7.268;2022-11-30T08:36:24;35.58;;;26.73;;
15271;SDS011;7737;51.578;7.268;2022-11-30T08:38:52;34.33;;;24.73;;
15271;SDS011;7737;51.578;7.268;2022-11-30T08:41:19;37.20;;;26.83;;
15271;SDS011;7737;51.578;7.268;2022-11-30T08:43:47;40.07;;;27.40;;
15271;SDS011;7737;51.578;7.268;2022-11-30T08:46:17;38.73;;;26.90;;
15271;SDS011;7737;51.578;7.268;2022-11-30T08:48:45;36.30;;;25.15;;
15271;SDS011;7737;51.578;7.268;2022-11-30T08:51:12;38.23;;;26.53;;
15271;SDS011;7737;51.578;7.268;2022-11-30T08:53:40;38.13;;;25.73;;
15271;SDS011;7737;51.578;7.268;2022-11-30T08:56:09;36.50;;;26.33;;
15271;SDS011;7737;51.578;7.268;2022-11-30T08:58:37;37.42;;;26.00;;
15271;SDS011;7737;51.578;7.268;2022-11-30T09:01:05;39.55;;;26.63;;
15271;SDS011;7737;51.578;7.268;2022-11-30T09:03:33;36.37;;;26.30;;
15271;SDS011;7737;51.578;7.268;2022-11-30T09:06:04;37.83;;;26.87;;
15271;SDS011;7737;51.578;7.268;2022-11-30T09:08:31;38.53;;;27.33;;
15271;SDS011;7737;51.578;7.268;2022-11-30T09:10:58;36.10;;;25.33;;
15271;SDS011;7737;51.578;7.268;2022-11-30T09:13:32;37.80;;;26.87;;
15271;SDS011;7737;51.578;7.268;2022-11-30T09:15:58;38.57;;;26.63;;
15271;SDS011;7737;51.578;7.268;2022-11-30T09:18:25;35.00;;;24.93;;
15271;SDS011;7737;51.578;7.268;2022-11-30T09:20:56;38.77;;;26.07;;
15271;SDS011;7737;51.578;7.268;2022-11-30T09:23:24;35.43;;;25.00;;
15271;SDS011;7737;51.578;7.268;2022-11-30T09:25:53;36.23;;;24.63;;
15271;SDS011;7737;51.578;7.268;2022-11-30T09:28:20;33.30;;;23.20;;
15271;SDS011;7737;51.578;7.268;2022-11-30T09:30:47;34.92;;;23.85;;
15271;SDS011;7737;51.578;7.268;2022-11-30T09:33:14;34.78;;;24.35;;
15271;SDS011;7737;51.578;7.268;2022-11-30T09:35:40;34.93;;;24.90;;
15271;SDS011;7737;51.578;7.268;2022-11-30T09:38:08;34.83;;;24.87;;
15271;SDS011;7737;51.578;7.268;2022-11-30T09:40:35;33.53;;;23.83;;
15271;SDS011;7737;51.578;7.268;2022-11-30T09:43:05;35.43;;;24.53;;
15271;SDS011;7737;51.578;7.268;2022-11-30T09:45:43;36.50;;;24.13;;
15271;SDS011;7737;51.578;7.268;2022-11-30T09:48:23;33.70;;;23.60;;
15271;SDS011;7737;51.578;7.268;2022-11-30T09:51:07;34.87;;;24.43;;
15271;SDS011;7737;51.578;7.268;2022-11-30T09:53:39;33.73;;;24.30;;
15271;SDS011;7737;51.578;7.268;2022-11-30T09:56:13;33.30;;;24.15;;
15271;SDS011;7737;51.578;7.268;2022-11-30T09:58:45;31.65;;;23.05;;
15271;SDS011;7737;51.578;7.268;2022-11-30T10:01:16;32.50;;;23.33;;
15271;SDS011;7737;51.578;7.268;2022-11-30T10:03:45;33.20;;;23.33;;
15271;SDS011;7737;51.578;7.268;2022-11-30T10:06:13;31.67;;;22.97;;
15271;SDS011;7737;51.578;7.268;2022-11-30T10:08:52;33.67;;;23.40;;
15271;SDS011;7737;51.578;7.268;2022-11-30T10:11:33;34.77;;;23.10;;
15271;SDS011;7737;51.578;7.268;2022-11-30T10:14:16;31.97;;;22.27;;
15271;SDS011;7737;51.578;7.268;2022-11-30T10:16:55;31.23;;;22.10;;
15271;SDS011;7737;51.578;7.268;2022-11-30T10:19:35;28.88;;;21.55;;
15271;SDS011;7737;51.578;7.268;2022-11-30T10:22:15;31.20;;;21.67;;
15271;SDS011;7737;51.578;7.268;2022-11-30T10:24:53;29.37;;;22.03;;
15271;SDS011;7737;51.578;7.268;2022-11-30T10:27:31;28.13;;;21.10;;
15271;SDS011;7737;51.578;7.268;2022-11-30T10:30:11;29.33;;;21.40;;
15271;SDS011;7737;51.578;7.268;2022-11-30T10:32:41;29.50;;;21.07;;
15271;SDS011;7737;51.578;7.268;2022-11-30T10:35:15;29.13;;;21.73;;
15271;SDS011;7737;51.578;7.268;2022-11-30T10:37:46;28.53;;;20.50;;
15271;SDS011;7737;51.578;7.268;2022-11-30T10:40:18;28.90;;;20.97;;
15271;SDS011;7737;51.578;7.268;2022-11-30T10:42:49;26.00;;;19.63;;
15271;SDS011;7737;51.578;7.268;2022-11-30T10:45:20;29.03;;;20.60;;
15271;SDS011;7737;51.578;7.268;2022-11-30T10:47:49;25.20;;;19.70;;
15271;SDS011;7737;51.578;7.268;2022-11-30T10:50:22;24.23;;;18.83;;
15271;SDS011;7737;51.578;7.268;2022-11-30T10:52:54;24.87;;;18.80;;
15271;SDS011;7737;51.578;7.268;2022-11-30T10:55:25;27.13;;;19.47;;
15271;SDS011;7737;51.578;7.268;2022-11-30T10:57:54;26.23;;;19.73;;
15271;SDS011;7737;51.578;7.268;2022-11-30T11:00:25;25.73;;;19.87;;
15271;SDS011;7737;51.578;7.268;2022-11-30T11:02:52;26.53;;;19.70;;
15271;SDS011;7737;51.578;7.268;2022-11-30T11:05:20;26.60;;;19.60;;
15271;SDS011;7737;51.578;7.268;2022-11-30T11:07:54;26.47;;;20.30;;
15271;SDS011;7737;51.578;7.268;2022-11-30T11:10:26;28.07;;;19.77;;
15271;SDS011;7737;51.578;7.268;2022-11-30T11:12:56;26.27;;;20.53;;
15271;SDS011;7737;51.578;7.268;2022-11-30T11:15:23;29.60;;;20.40;;
15271;SDS011;7737;51.578;7.268;2022-11-30T11:17:51;28.27;;;19.77;;
15271;SDS011;7737;51.578;7.268;2022-11-30T11:20:28;27.00;;;20.27;;
15271;SDS011;7737;51.578;7.268;2022-11-30T11:22:57;29.10;;;20.67;;
15271;SDS011;7737;51.578;7.268;2022-11-30T11:25:26;31.50;;;22.07;;
15271;SDS011;7737;51.578;7.268;2022-11-30T11:28:01;31.13;;;21.37;;
15271;SDS011;7737;51.578;7.268;2022-11-30T11:30:30;28.93;;;21.43;;
15271;SDS011;7737;51.578;7.268;2022-11-30T11:32:58;30.50;;;20.87;;
15271;SDS011;7737;51.578;7.268;2022-11-30T11:35:33;36.33;;;22.13;;
15271;SDS011;7737;51.578;7.268;2022-11-30T11:38:01;33.73;;;22.00;;
15271;SDS011;7737;51.578;7.268;2022-11-30T11:40:30;33.37;;;22.23;;
15271;SDS011;7737;51.578;7.268;2022-11-30T11:42:57;33.60;;;22.10;;
15271;SDS011;7737;51.578;7.268;2022-11-30T11:45:25;27.77;;;19.83;;
15271;SDS011;7737;51.578;7.268;2022-11-30T11:47:58;30.40;;;21.33;;
15271;SDS011;7737;51.578;7.268;2022-11-30T11:50:27;29.07;;;20.53;;
15271;SDS011;7737;51.578;7.268;2022-11-30T11:53:05;30.80;;;21.87;;
15271;SDS011;7737;51.578;7.268;2022-11-30T11:55:50;32.83;;;22.43;;
15271;SDS011;7737;51.578;7.268;2022-11-30T11:58:21;29.17;;;20.70;;
15271;SDS011;7737;51.578;7.268;2022-11-30T12:00:56;31.60;;;22.27;;
15271;SDS011;7737;51.578;7.268;2022-11-30T12:03:28;29.93;;;20.77;;
15271;SDS011;7737;51.578;7.268;2022-11-30T12:06:04;30.10;;;21.03;;
15271;SDS011;7737;51.578;7.268;2022-11-30T12:08:37;31.33;;;21.37;;
15271;SDS011;7737;51.578;7.268;2022-11-30T12:11:12;32.53;;;21.57;;
15271;SDS011;7737;51.578;7.268;2022-11-30T12:13:44;30.13;;;21.27;;
15271;SDS011;7737;51.578;7.268;2022-11-30T12:16:24;29.90;;;20.80;;
15271;SDS011;7737;51.578;7.268;2022-11-30T12:19:02;31.17;;;20.77;;
15271;SDS011;7737;51.578;7.268;2022-11-30T12:21:40;28.50;;;19.50;;
15271;SDS011;7737;51.578;7.268;2022-11-30T12:24:24;28.47;;;19.77;;
15271;SDS011;7737;51.578;7.268;2022-11-30T12:27:06;26.20;;;19.47;;
15271;SDS011;7737;51.578;7.268;2022-11-30T12:29:42;25.87;;;19.27;;
15271;SDS011;7737;51.578;7.268;2022-11-30T12:32:19;25.43;;;19.07;;
15271;SDS011;7737;51.578;7.268;2022-11-30T12:35:02;30.27;;;20.83;;
15271;SDS011;7737;51.578;7.268;2022-11-30T12:37:41;28.50;;;19.73;;
15271;SDS011;7737;51.578;7.268;2022-11-30T12:40:25;29.17;;;19.67;;
15271;SDS011;7737;51.578;7.268;2022-11-30T12:43:02;27.27;;;20.20;;
15271;SDS011;7737;51.578;7.268;2022-11-30T12:45:37;28.20;;;20.40;;
15271;SDS011;7737;51.578;7.268;2022-11-30T12:48:09;26.77;;;19.17;;
15271;SDS011;7737;51.578;7.268;2022-11-30T12:50:51;26.73;;;19.07;;
15271;SDS011;7737;51.578;7.268;2022-11-30T12:53:26;30.33;;;19.57;;
15271;SDS011;7737;51.578;7.268;2022-11-30T12:56:00;31.23;;;21.33;;
15271;SDS011;7737;51.578;7.268;2022-11-30T12:58:39;32.60;;;21.40;;
15271;SDS011;7737;51.578;7.268;2022-11-30T13:01:16;34.97;;;22.33;;
15271;SDS011;7737;51.578;7.268;2022-11-30T13:03:57;41.30;;;23.33;;
15271;SDS011;7737;51.578;7.268;2022-11-30T13:06:29;50.17;;;23.67;;
15271;SDS011;7737;51.578;7.268;2022-11-30T13:08:59;36.23;;;22.53;;
15271;SDS011;7737;51.578;7.268;2022-11-30T13:11:31;34.60;;;21.70;;
15271;SDS011;7737;51.578;7.268;2022-11-30T13:14:03;39.47;;;23.53;;
15271;SDS011;7737;51.578;7.268;2022-11-30T13:16:34;34.90;;;22.77;;
15271;SDS011;7737;51.578;7.268;2022-11-30T13:19:03;34.60;;;22.07;;
15271;SDS011;7737;51.578;7.268;2022-11-30T13:21:40;37.23;;;23.17;;
15271;SDS011;7737;51.578;7.268;2022-11-30T13:24:15;32.80;;;21.63;;
15271;SDS011;7737;51.578;7.268;2022-11-30T13:26:48;34.47;;;21.87;;
15271;SDS011;7737;51.578;7.268;2022-11-30T13:32:24;36.07;;;22.13;;
15271;SDS011;7737;51.578;7.268;2022-11-30T13:34:50;32.53;;;21.50;;
15271;SDS011;7737;51.578;7.268;2022-11-30T13:37:17;33.93;;;21.47;;
15271;SDS011;7737;51.578;7.268;2022-11-30T13:39:46;33.60;;;20.87;;
15271;SDS011;7737;51.578;7.268;2022-11-30T13:50:53;37.83;;;21.93;;
15271;SDS011;7737;51.578;7.268;2022-11-30T13:53:21;34.77;;;21.73;;
15271;SDS011;7737;51.578;7.268;2022-11-30T14:05:21;36.83;;;21.23;;
15271;SDS011;7737;51.578;7.268;2022-11-30T14:08:09;41.00;;;21.67;;
15271;SDS011;7737;51.578;7.268;2022-11-30T14:13:57;32.77;;;18.60;;
15271;SDS011;7737;51.578;7.268;2022-11-30T14:16:47;31.93;;;18.87;;
15271;SDS011;7737;51.578;7.268;2022-11-30T14:19:14;32.20;;;20.00;;
15271;SDS011;7737;51.578;7.268;2022-11-30T14:21:42;28.90;;;19.10;;
15271;SDS011;7737;51.578;7.268;2022-11-30T14:24:12;33.43;;;19.47;;
15271;SDS011;7737;51.578;7.268;2022-11-30T14:26:43;30.77;;;19.57;;
15271;SDS011;7737;51.578;7.268;2022-11-30T14:29:12;29.17;;;19.37;;
15271;SDS011;7737;51.578;7.268;2022-11-30T14:31:47;31.20;;;19.37;;
15271;SDS011;7737;51.578;7.268;2022-11-30T14:34:20;27.33;;;18.90;;
15271;SDS011;7737;51.578;7.268;2022-11-30T14:36:53;29.37;;;18.43;;
15271;SDS011;7737;51.578;7.268;2022-11-30T14:39:25;29.10;;;18.40;;
15271;SDS011;7737;51.578;7.268;2022-11-30T14:41:56;27.50;;;19.20;;
15271;SDS011;7737;51.578;7.268;2022-11-30T14:44:22;31.53;;;19.27;;
15271;SDS011;7737;51.578;7.268;2022-11-30T14:46:49;30.07;;;19.17;;
15271;SDS011;7737;51.578;7.268;2022-11-30T14:49:16;33.57;;;20.80;;
15271;SDS011;7737;51.578;7.268;2022-11-30T14:51:44;36.80;;;21.23;;
15271;SDS011;7737;51.578;7.268;2022-11-30T14:54:32;32.03;;;20.47;;
15271;SDS011;7737;51.578;7.268;2022-11-30T14:57:06;37.27;;;21.10;;
15271;SDS011;7737;51.578;7.268;2022-11-30T14:59:44;33.33;;;21.10;;
15271;SDS011;7737;51.578;7.268;2022-11-30T15:02:20;34.77;;;21.03;;
15271;SDS011;7737;51.578;7.268;2022-11-30T15:04:51;32.97;;;20.17;;
15271;SDS011;7737;51.578;7.268;2022-11-30T15:07:19;36.70;;;19.40;;
15271;SDS011;7737;51.578;7.268;2022-11-30T15:09:49;31.53;;;18.53;;
15271;SDS011;7737;51.578;7.268;2022-11-30T15:12:18;25.73;;;16.90;;